Time;durP1;ratioP1;P1;durP2;ratioP2;P2;SDS_P1;SDS_P2;PMS_P1;PMS_P2;Temp;Humidity;BMP_temperature;BMP_pressure;BME280_temperature;BME280_humidity;BME280_pressure;Samples;Min_cycle;Max_cycle;Signal;HPM_P1;HPM_P2
2023/02/03 06:54:44;;;;;;;5.35;2.30;;;;;;;;;;10602625;27;20409;-81
2023/02/03 06:59:45;;;;;;;;;;;;;;;;;;10568423;28;20024;-82
2023/02/03 07:04:46;;;;;;;3.03;1.67;;;;;;;;;;10565682;28;19949;-82
2023/02/03 07:09:47;;;;;;;5.60;2.53;;;;;;;;;;10570031;28;20023;-81
2023/02/03 07:14:48;;;;;;;5.18;2.63;;;;;;;;;;10603564;28;20019;-81
2023/02/03 07:19:49;;;;;;;4.47;2.22;;;;;;;;;;10586293;28;20069;-82
2023/02/03 07:24:50;;;;;;;5.30;2.30;;;;;;;;;;10566684;28;20100;-82
2023/02/03 07:29:51;;;;;;;6.43;2.70;;;;;;;;;;10566358;28;20420;-82
2023/02/03 07:34:52;;;;;;;4.60;2.00;;;;;;;;;;10566617;28;20043;-82
2023/02/03 07:39:53;;;;;;;3.15;1.33;;;;;;;;;;10587144;28;20027;-84
2023/02/03 07:44:54;;;;;;;4.88;1.95;;;;;;;;;;10570879;28;20024;-83
2023/02/03 07:49:55;;;;;;;32.85;23.77;;;;;;;;;;10570501;28;20028;-84
2023/02/03 07:54:56;;;;;;;4.72;2.17;;;;;;;;;;10594345;28;20090;-84
2023/02/03 07:59:57;;;;;;;5.05;2.42;;;;;;;;;;10569655;28;20051;-84
2023/02/03 08:04:58;;;;;;;4.95;2.15;;;;;;;;;;10550838;28;20534;-79
2023/02/03 08:09:59;;;;;;;3.67;1.20;;;;;;;;;;10548465;28;20039;-78
2023/02/03 08:15:00;;;;;;;3.75;1.40;;;;;;;;;;10563919;28;20031;-82
2023/02/03 08:20:01;;;;;;;;;;;;;;;;;;10540133;28;20127;-82
2023/02/03 08:25:02;;;;;;;4.55;1.90;;;;;;;;;;10539206;28;19910;-84
2023/02/03 08:30:04;;;;;;;5.70;2.60;;;;;;;;;;10565229;28;20019;-80
2023/02/03 08:35:06;;;;;;;5.72;2.22;;;;;;;;;;10551577;28;20451;-80
2023/02/03 08:40:07;;;;;;;6.45;3.17;;;;;;;;;;10567251;28;20020;-80
2023/02/03 08:45:08;;;;;;;6.93;3.65;;;;;;;;;;10544237;28;20592;-82
2023/02/03 08:50:09;;;;;;;;;;;;;;;;;;10541453;28;20198;-82
2023/02/03 08:55:10;;;;;;;5.50;2.50;;;;;;;;;;10557098;28;19904;-83
2023/02/03 09:00:12;;;;;;;6.32;3.08;;;;;;;;;;10542441;28;20035;-83
2023/02/03 09:05:16;;;;;;;7.50;3.22;;;;;;;;;;10554497;28;20020;-83
2023/02/03 09:10:17;;;;;;;5.45;2.70;;;;;;;;;;10555349;28;20020;-82
2023/02/03 09:15:18;;;;;;;7.13;4.05;;;;;;;;;;10555012;28;20032;-82
2023/02/03 09:20:19;;;;;;;9.88;4.20;;;;;;;;;;10536743;28;20067;-83
2023/02/03 09:25:20;;;;;;;6.22;2.72;;;;;;;;;;10537575;28;20028;-82
2023/02/03 09:30:21;;;;;;;5.95;2.55;;;;;;;;;;10538138;28;20048;-82
2023/02/03 09:35:23;;;;;;;9.23;2.97;;;;;;;;;;10538593;28;20105;-84
2023/02/03 09:40:27;;;;;;;8.60;2.80;;;;;;;;;;10540182;28;20470;-84
2023/02/03 09:45:29;;;;;;;8.57;2.80;;;;;;;;;;10540542;28;20055;-82
2023/02/03 09:50:33;;;;;;;8.07;3.05;;;;;;;;;;10542938;28;20066;-82
2023/02/03 09:55:39;;;;;;;7.63;3.78;;;;;;;;;;10543534;28;20028;-83
2023/02/03 10:00:53;;;;;;;5.80;2.75;;;;;;;;;;10546434;28;20430;-83
2023/02/03 10:06:07;;;;;;;5.90;3.17;;;;;;;;;;10538651;28;20024;-82
2023/02/03 10:11:15;;;;;;;5.68;2.90;;;;;;;;;;10528722;28;20024;-81
2023/02/03 10:16:31;;;;;;;11.55;3.83;;;;;;;;;;10544698;28;20063;-80
2023/02/03 10:21:42;;;;;;;8.77;3.42;;;;;;;;;;10537317;28;20386;-81
2023/02/03 10:26:43;;;;;;;7.65;3.28;;;;;;;;;;10547282;28;20385;-81
2023/02/03 10:31:46;;;;;;;9.35;4.10;;;;;;;;;;10534914;28;20059;-82
2023/02/03 10:37:04;;;;;;;5.95;3.22;;;;;;;;;;10541147;28;20106;-81
2023/02/03 10:42:06;;;;;;;11.13;4.50;;;;;;;;;;10546880;28;20046;-81
2023/02/03 10:47:26;;;;;;;7.40;3.33;;;;;;;;;;10531956;28;20043;-82
2023/02/03 10:52:29;;;;;;;6.53;3.45;;;;;;;;;;10567494;28;20032;-83
2023/02/03 10:57:30;;;;;;;5.88;2.35;;;;;;;;;;10534116;28;20028;-83
2023/02/03 11:02:32;;;;;;;5.88;3.08;;;;;;;;;;10531926;28;20032;-81
2023/02/03 11:07:34;;;;;;;6.10;2.92;;;;;;;;;;10534411;28;20020;-83
2023/02/03 11:12:35;;;;;;;5.30;2.55;;;;;;;;;;10535375;28;20031;-82
2023/02/03 11:17:36;;;;;;;5.15;2.60;;;;;;;;;;10557362;28;20430;-81
2023/02/03 11:22:37;;;;;;;;;;;;;;;;;;10540061;28;20025;-82
2023/02/03 11:27:38;;;;;;;8.25;2.75;;;;;;;;;;10555302;28;20346;-81
2023/02/03 11:32:41;;;;;;;9.90;3.20;;;;;;;;;;10548760;28;20032;-81
2023/02/03 11:37:44;;;;;;;7.55;2.22;;;;;;;;;;10565738;28;20024;-81
2023/02/03 11:43:06;;;;;;;5.55;2.22;;;;;;;;;;10548721;28;20039;-81
2023/02/03 11:48:10;;;;;;;7.78;3.05;;;;;;;;;;10536450;28;20072;-81
2023/02/03 11:53:10;;;;;;;9.60;3.15;;;;;;;;;;10536353;28;20071;-83
2023/02/03 11:58:18;;;;;;;10.50;2.88;;;;;;;;;;10553493;28;20031;-83
2023/02/03 12:03:34;;;;;;;6.45;3.63;;;;;;;;;;10532005;28;20040;-80
2023/02/03 12:08:40;;;;;;;7.13;3.13;;;;;;;;;;10551057;28;20078;-80
2023/02/03 12:13:57;;;;;;;8.13;2.80;;;;;;;;;;10533507;28;20050;-80
2023/02/03 12:19:10;;;;;;;6.47;2.40;;;;;;;;;;10534985;28;20028;-80
2023/02/03 12:24:17;;;;;;;9.50;3.42;;;;;;;;;;10532266;28;20031;-81
2023/02/03 12:29:22;;;;;;;4.97;2.58;;;;;;;;;;10533876;28;20442;-80
2023/02/03 12:34:38;;;;;;;9.75;3.33;;;;;;;;;;10536414;28;20142;-81
2023/02/03 12:39:45;;;;;;;5.03;2.17;;;;;;;;;;10536999;28;20035;-82
2023/02/03 12:44:56;;;;;;;6.13;2.40;;;;;;;;;;10550251;22;20043;-80
2023/02/03 12:49:57;;;;;;;;;;;;;;;;;;10495455;28;20029;-82
2023/02/03 12:55:14;;;;;;;6.35;2.17;;;;;;;;;;10493720;28;19904;-81
2023/02/03 13:00:25;;;;;;;6.57;2.20;;;;;;;;;;10496397;28;20479;-79
2023/02/03 13:05:29;;;;;;;5.37;2.17;;;;;;;;;;10514180;28;20021;-80
2023/02/03 13:10:43;;;;;;;6.22;2.10;;;;;;;;;;10497378;28;20100;-80
2023/02/03 13:15:46;;;;;;;7.07;1.90;;;;;;;;;;10501932;28;20104;-80
2023/02/03 13:20:47;;;;;;;4.95;1.98;;;;;;;;;;10516131;28;20020;-81
2023/02/03 13:25:54;;;;;;;5.43;2.00;;;;;;;;;;10519213;28;20028;-80
2023/02/03 13:30:58;;;;;;;8.82;4.00;;;;;;;;;;10515113;28;20225;-80
2023/02/03 13:36:08;;;;;;;10.10;2.67;;;;;;;;;;10490854;28;20024;-81
2023/02/03 13:41:16;;;;;;;6.60;2.85;;;;;;;;;;10490630;28;20025;-79
2023/02/03 13:46:21;;;;;;;9.20;2.20;;;;;;;;;;10490818;28;20032;-81
2023/02/03 13:51:45;;;;;;;5.75;2.10;;;;;;;;;;10509194;28;20067;-81
2023/02/03 13:56:53;;;;;;;9.93;2.40;;;;;;;;;;10480390;28;20056;-81
2023/02/03 14:02:15;;;;;;;7.35;2.58;;;;;;;;;;10490850;28;20529;-81
2023/02/03 14:07:27;;;;;;;8.05;2.00;;;;;;;;;;10493082;28;20039;-81
2023/02/03 14:12:33;;;;;;;11.43;3.67;;;;;;;;;;10510979;28;20028;-82
2023/02/03 14:17:34;;;;;;;9.25;2.28;;;;;;;;;;10512421;28;20331;-83
2023/02/03 14:22:39;;;;;;;6.40;2.53;;;;;;;;;;10491658;28;20020;-81
2023/02/03 14:27:40;;;;;;;8.85;3.03;;;;;;;;;;10495343;28;20095;-82
2023/02/03 14:32:41;;;;;;;;;;;;;;;;;;10491833;28;20037;-82
2023/02/03 14:37:51;;;;;;;10.38;3.60;;;;;;;;;;10494708;28;19905;-81
2023/02/03 14:43:11;;;;;;;7.40;2.60;;;;;;;;;;10494644;28;20042;-83
2023/02/03 14:48:31;;;;;;;8.25;2.72;;;;;;;;;;10509742;28;20060;-81
2023/02/03 14:53:47;;;;;;;8.18;2.85;;;;;;;;;;10491496;28;20036;-81
2023/02/03 14:58:52;;;;;;;7.55;2.45;;;;;;;;;;10492013;28;20509;-82
2023/02/03 15:04:16;;;;;;;10.48;2.80;;;;;;;;;;10493883;28;20028;-81
2023/02/03 15:09:34;;;;;;;14.25;4.53;;;;;;;;;;10489756;28;20024;-81
2023/02/03 15:14:36;;;;;;;8.40;3.85;;;;;;;;;;10512579;28;20028;-82
2023/02/03 15:19:38;;;;;;;9.10;3.08;;;;;;;;;;10498049;28;20032;-82
2023/02/03 15:24:39;;;;;;;10.18;3.47;;;;;;;;;;10506303;28;20068;-81
2023/02/03 15:29:40;;;;;;;9.38;3.35;;;;;;;;;;10499226;28;20086;-82
2023/02/03 15:34:41;;;;;;;;;;;;;;;;;;10516359;28;20044;-81
2023/02/03 15:39:52;;;;;;;7.65;2.50;;;;;;;;;;10507104;28;20008;-82
2023/02/03 15:45:02;;;;;;;9.07;2.93;;;;;;;;;;10515496;28;20029;-82
2023/02/03 15:50:06;;;;;;;9.13;2.50;;;;;;;;;;10499481;28;20024;-82
2023/02/03 15:55:19;;;;;;;11.15;3.00;;;;;;;;;;10501313;28;20028;-83
2023/02/03 16:00:35;;;;;;;11.18;3.33;;;;;;;;;;10500901;28;20094;-83
2023/02/03 16:05:36;;;;;;;10.98;3.28;;;;;;;;;;10500508;28;20093;-85
2023/02/03 16:10:37;;;;;;;;;;;;;;;;;;10499647;28;20047;-83
2023/02/03 16:15:38;;;;;;;6.85;2.47;;;;;;;;;;10497971;28;19914;-83
2023/02/03 16:20:39;;;;;;;;;;;;;;;;;;10500262;28;20100;-84
2023/02/03 16:25:42;;;;;;;9.75;2.50;;;;;;;;;;10530966;28;19897;-83
2023/02/03 16:52:17;;;;;;;8.05;2.70;;;;;;;;;;10511131;28;20052;-81
2023/02/03 16:57:18;;;;;;;;;;;;;;;;;;10493432;28;20097;-80
2023/02/03 17:02:19;;;;;;;8.25;2.08;;;;;;;;;;10500888;28;20331;-79
2023/02/03 17:07:20;;;;;;;;;;;;;;;;;;10512244;28;20394;-80
2023/02/03 17:12:21;;;;;;;7.40;2.40;;;;;;;;;;10489629;28;19911;-80
2023/02/03 17:17:22;;;;;;;6.20;2.17;;;;;;;;;;10489809;28;20063;-80
2023/02/03 17:22:23;;;;;;;7.30;2.08;;;;;;;;;;10490446;28;20041;-80
2023/02/03 17:27:24;;;;;;;;;;;;;;;;;;10494673;28;20109;-81
2023/02/03 17:32:25;;;;;;;11.15;2.78;;;;;;;;;;10495726;28;20015;-81
2023/02/03 17:37:26;;;;;;;;;;;;;;;;;;10513630;28;20024;-81
2023/02/03 17:42:27;;;;;;;12.48;4.13;;;;;;;;;;10498749;28;19922;-82
2023/02/03 17:47:28;;;;;;;9.38;2.85;;;;;;;;;;10516274;28;20048;-81
2023/02/03 17:52:29;;;;;;;9.65;2.85;;;;;;;;;;10514698;28;20013;-81
2023/02/03 17:57:32;;;;;;;;;;;;;;;;;;10524229;28;20047;-81
2023/02/03 18:02:33;;;;;;;8.93;3.00;;;;;;;;;;10497248;28;20289;-81
2023/02/03 18:07:34;;;;;;;11.63;2.85;;;;;;;;;;10492124;28;20059;-82
2023/02/03 18:12:35;;;;;;;;;;;;;;;;;;10491661;28;20081;-81
2023/02/03 18:17:36;;;;;;;9.75;2.97;;;;;;;;;;10492462;28;19909;-81
2023/02/03 18:22:37;;;;;;;9.57;2.85;;;;;;;;;;10491896;28;20028;-82
2023/02/03 18:27:38;;;;;;;9.80;3.65;;;;;;;;;;10491922;28;20024;-82
2023/02/03 18:32:39;;;;;;;;;;;;;;;;;;10509052;28;20024;-82
2023/02/03 18:37:40;;;;;;;11.02;3.65;;;;;;;;;;10488297;28;19910;-82
2023/02/03 18:42:41;;;;;;;9.45;2.92;;;;;;;;;;10507596;28;20064;-82
2023/02/03 18:48:13;;;;;;;13.00;3.38;;;;;;;;;;10437979;22;20080;-87
2023/02/03 19:04:31;;;;;;;13.07;3.25;;;;;;;;;;10369480;28;20431;-87
2023/02/03 19:09:33;;;;;;;13.82;3.58;;;;;;;;;;10386087;28;20109;-86
2023/02/03 19:14:34;;;;;;;;;;;;;;;;;;10368662;28;20029;-87
2023/02/03 19:20:04;;;;;;;11.55;3.00;;;;;;;;;;10316373;28;19986;-87
2023/02/03 19:25:05;;;;;;;12.70;3.60;;;;;;;;;;10285004;28;20139;-87
2023/02/03 19:30:07;;;;;;;9.40;2.88;;;;;;;;;;10363705;28;20046;-87
2023/02/03 19:35:07;;;;;;;;;;;;;;;;;;10363819;28;20034;-87
2023/02/03 19:40:09;;;;;;;10.60;3.20;;;;;;;;;;10377948;28;19909;-87
2023/02/03 19:45:11;;;;;;;16.23;3.65;;;;;;;;;;10363874;28;20029;-87
2023/02/03 19:50:12;;;;;;;11.05;3.17;;;;;;;;;;10367985;28;20061;-87
2023/02/03 19:55:13;;;;;;;;;;;;;;;;;;10372469;28;20392;-87
2023/02/03 20:00:14;;;;;;;11.32;3.03;;;;;;;;;;10394461;28;19905;-87
2023/02/03 20:05:16;;;;;;;13.88;3.60;;;;;;;;;;10382057;28;20029;-88
2023/02/03 20:10:17;;;;;;;16.13;4.53;;;;;;;;;;10377533;28;20025;-86
2023/02/03 20:15:18;;;;;;;16.35;3.42;;;;;;;;;;10380052;28;20102;-86
